createdAt,value
2019-04-16T00:01:13.940Z,99917.74
2019-04-16T00:04:22.319Z,99919.45
2019-04-16T00:07:10.355Z,99911.43
2019-04-16T00:09:53.809Z,99911.55
2019-04-16T00:12:37.010Z,99906.67
2019-04-16T00:15:07.794Z,99908.42
2019-04-16T00:17:37.189Z,99907.53
2019-04-16T00:20:07.646Z,99907.42
2019-04-16T00:22:50.934Z,99894.66
2019-04-16T00:25:20.309Z,99895.80
2019-04-16T00:27:49.947Z,99898.23
2019-04-16T00:30:20.117Z,99895.36
2019-04-16T00:32:50.154Z,99891.11
2019-04-16T00:35:20.166Z,99890.55
2019-04-16T00:37:51.782Z,99884.91
2019-04-16T00:40:26.235Z,99892.45
2019-04-16T00:42:54.406Z,99886.07
2019-04-16T00:45:23.778Z,99891.30
2019-04-16T00:47:53.166Z,99887.79
2019-04-16T00:50:22.540Z,99882.70
2019-04-16T00:52:53.161Z,99880.66
2019-04-16T00:55:22.531Z,99882.24
2019-04-16T00:57:51.908Z,99877.03
2019-04-16T01:00:21.294Z,99878.82
2019-04-16T01:02:50.693Z,99874.87
2019-04-16T01:05:20.694Z,99875.38
2019-04-16T01:07:50.461Z,99875.11
2019-04-16T01:10:20.418Z,99873.53
2019-04-16T01:12:50.387Z,99876.09
2019-04-16T01:15:20.420Z,99871.55
2019-04-16T01:17:50.431Z,99869.38
2019-04-16T01:20:20.458Z,99865.95
2019-04-16T01:22:50.452Z,99862.28
2019-04-16T01:25:23.288Z,99856.70
2019-04-16T01:27:59.799Z,99852.71
2019-04-16T01:30:44.874Z,99854.33
2019-04-16T01:33:15.882Z,99852.59
2019-04-16T01:35:51.482Z,99848.69
2019-04-16T01:38:22.407Z,99846.86
2019-04-16T01:41:02.025Z,99845.84
2019-04-16T01:43:31.399Z,99844.41
2019-04-16T01:46:02.198Z,99842.36
2019-04-16T01:48:32.176Z,99840.97
2019-04-16T01:51:01.560Z,99839.08
2019-04-16T01:53:30.935Z,99836.23
2019-04-16T01:56:00.564Z,99834.61
2019-04-16T01:58:33.559Z,99835.88
2019-04-16T02:01:01.209Z,99835.84
2019-04-16T02:03:30.896Z,99833.83
2019-04-16T02:06:00.275Z,99832.87
2019-04-16T02:08:31.043Z,99833.42
2019-04-16T02:11:20.127Z,99838.38
2019-04-16T02:13:49.505Z,99829.47
2019-04-16T02:16:18.904Z,99825.29
2019-04-16T02:18:48.282Z,99829.05
2019-04-16T02:21:17.669Z,99825.53
2019-04-16T02:23:48.106Z,99826.75
2019-04-16T02:26:20.588Z,99823.23
2019-04-16T02:28:49.216Z,99828.80
2019-04-16T02:31:18.851Z,99823.39
2019-04-16T02:33:48.216Z,99819.44
2019-04-16T02:36:17.603Z,99821.92
2019-04-16T02:38:52.709Z,99821.05
2019-04-16T02:41:18.082Z,99825.34
2019-04-16T02:43:47.470Z,99829.45
2019-04-16T02:46:16.853Z,99829.41
2019-04-16T02:48:49.999Z,99828.61
2019-04-16T02:51:27.920Z,99830.63
2019-04-16T02:54:00.049Z,99817.63
2019-04-16T02:56:52.036Z,99825.47
2019-04-16T02:59:26.064Z,99819.77
2019-04-16T03:01:57.137Z,99825.48
2019-04-16T03:04:30.698Z,99819.28
2019-04-16T03:07:03.318Z,99813.84
2019-04-16T03:09:31.613Z,99813.52
2019-04-16T03:12:01.435Z,99812.27
2019-04-16T03:14:30.911Z,99814.40
2019-04-16T03:17:17.798Z,99811.25
2019-04-16T03:19:51.439Z,99808.33
2019-04-16T03:22:19.959Z,99808.13
2019-04-16T03:24:49.657Z,99804.86
2019-04-16T03:27:21.896Z,99806.72
2019-04-16T03:29:50.137Z,99805.10
2019-04-16T03:32:19.513Z,99797.95
2019-04-16T03:34:50.469Z,99790.45
2019-04-16T03:37:21.383Z,99795.63
2019-04-16T03:39:51.478Z,99787.92
2019-04-16T03:42:24.456Z,99792.62
2019-04-16T03:44:52.681Z,99793.36
2019-04-16T03:47:22.084Z,99792.29
2019-04-16T03:49:51.531Z,99798.36
2019-04-16T03:52:21.637Z,99792.08
2019-04-16T03:54:54.126Z,99797.04
2019-04-16T03:57:23.247Z,99793.11
2019-04-16T03:59:52.645Z,99787.97
2019-04-16T04:02:23.063Z,99785.08
2019-04-16T04:04:52.666Z,99789.63
2019-04-16T04:07:22.038Z,99782.73
2019-04-16T04:09:54.644Z,99780.83
2019-04-16T04:12:22.738Z,99783.95
2019-04-16T04:14:54.426Z,99787.25
2019-04-16T04:17:23.459Z,99783.78
2019-04-16T04:19:52.803Z,99784.84
2019-04-16T04:22:25.311Z,99777.31
2019-04-16T04:24:53.283Z,99783.26
2019-04-16T04:27:22.678Z,99776.59
2019-04-16T04:29:53.715Z,99779.20
2019-04-16T04:32:23.155Z,99782.50
2019-04-16T04:34:52.527Z,99772.59
2019-04-16T04:37:21.893Z,99770.42
2019-04-16T04:39:51.844Z,99772.32
2019-04-16T04:42:21.743Z,99766.78
2019-04-16T04:44:52.011Z,99767.07
2019-04-16T04:47:21.865Z,99772.00
2019-04-16T04:49:51.906Z,99772.95
2019-04-16T04:52:21.808Z,99767.81
2019-04-16T04:54:54.185Z,99772.39
2019-04-16T04:57:22.953Z,99774.36
2019-04-16T04:59:52.339Z,99770.49
2019-04-16T05:02:22.193Z,99772.55
2019-04-16T05:05:02.996Z,99769.52
2019-04-16T05:07:32.376Z,99772.78
2019-04-16T05:10:04.541Z,99770.70
2019-04-16T05:12:32.821Z,99779.12
2019-04-16T05:15:03.996Z,99784.53
2019-04-16T05:17:35.530Z,99781.31
2019-04-16T05:20:06.630Z,99781.11
2019-04-16T05:22:36.151Z,99789.10
2019-04-16T05:25:06.872Z,99791.24
2019-04-16T05:27:39.950Z,99787.78
2019-04-16T05:30:08.471Z,99792.09
2019-04-16T05:32:37.856Z,99793.57
2019-04-16T05:35:10.225Z,99792.42
2019-04-16T05:37:39.111Z,99799.08
2019-04-16T05:40:09.009Z,99797.86
2019-04-16T05:42:38.395Z,99795.97
2019-04-16T05:45:08.820Z,99789.93
2019-04-16T05:47:38.207Z,99789.51
2019-04-16T05:50:07.907Z,99795.84
2019-04-16T05:52:37.292Z,99793.66
2019-04-16T05:55:16.800Z,99792.42
2019-04-16T05:57:45.449Z,99788.66
2019-04-16T06:00:17.488Z,99789.63
2019-04-16T06:02:49.538Z,99785.47
2019-04-16T06:05:17.967Z,99776.66
2019-04-16T06:07:47.644Z,99773.75
2019-04-16T06:10:18.818Z,99770.86
2019-04-16T06:12:50.005Z,99776.94
2019-04-16T06:15:38.851Z,99776.57
2019-04-16T06:18:27.882Z,99768.41
2019-04-16T06:21:01.706Z,99766.57
2019-04-16T06:23:32.818Z,99763.61
2019-04-16T06:26:14.759Z,99764.52
2019-04-16T06:29:00.124Z,99763.60
2019-04-16T06:31:40.168Z,99752.84
2019-04-16T06:34:19.591Z,99754.44
2019-04-16T06:36:53.304Z,99745.48
2019-04-16T06:39:30.053Z,99747.06
2019-04-16T06:42:08.364Z,99748.05
2019-04-16T06:44:54.376Z,99759.19
2019-04-16T06:47:25.407Z,99760.61
2019-04-16T06:49:56.705Z,99758.02
2019-04-16T06:52:46.229Z,99753.94
2019-04-16T06:55:25.888Z,99754.96
2019-04-16T06:58:16.424Z,99749.25
2019-04-16T07:00:55.073Z,99753.11
2019-04-16T07:03:32.360Z,99746.12
2019-04-16T07:06:04.906Z,99750.84
2019-04-16T07:08:38.534Z,99752.66
2019-04-16T07:11:07.512Z,99751.44
2019-04-16T07:13:41.934Z,99747.61
2019-04-16T07:16:08.009Z,99748.25
2019-04-16T07:18:38.702Z,99743.91
2019-04-16T07:21:09.104Z,99738.50
2019-04-16T07:23:38.515Z,99740.86
2019-04-16T07:26:13.591Z,99742.35
2019-04-16T07:28:40.637Z,99736.31
2019-04-16T07:31:31.786Z,99728.83
2019-04-16T07:34:03.662Z,99732.13
2019-04-16T07:36:34.723Z,99724.81
2019-04-16T07:39:13.130Z,99733.31
2019-04-16T07:41:43.822Z,99727.68
2019-04-16T07:44:17.645Z,99722.51
2019-04-16T07:46:54.755Z,99720.95
2019-04-16T07:49:31.778Z,99724.30
2019-04-16T07:52:19.541Z,99723.47
2019-04-16T07:54:50.557Z,99716.31
2019-04-16T07:57:19.940Z,99720.60
2019-04-16T07:59:49.597Z,99721.81
2019-04-16T08:02:21.648Z,99717.94
2019-04-16T08:04:50.087Z,99717.41
2019-04-16T08:07:20.584Z,99724.66
2019-04-16T08:09:50.728Z,99721.76
2019-04-16T08:12:29.913Z,99721.44
2019-04-16T08:14:51.250Z,99712.80
2019-04-16T08:17:20.641Z,99714.33
2019-04-16T08:19:50.016Z,99705.73
2019-04-16T08:22:19.425Z,99714.75
2019-04-16T08:25:03.055Z,99713.30
2019-04-16T08:27:30.356Z,99710.83
2019-04-16T08:30:03.489Z,99711.55
2019-04-16T08:32:31.167Z,99702.31
2019-04-16T08:35:00.548Z,99713.23
2019-04-16T08:37:29.992Z,99717.53
2019-04-16T08:39:59.373Z,99707.75
2019-04-16T08:42:30.816Z,99713.13
2019-04-16T08:44:59.865Z,99713.02
2019-04-16T08:47:29.271Z,99699.02
2019-04-16T08:49:58.634Z,99691.01
2019-04-16T08:52:28.021Z,99692.88
2019-04-16T08:54:57.730Z,99694.70
2019-04-16T08:57:31.774Z,99689.14
2019-04-16T08:59:58.231Z,99698.02
2019-04-16T09:02:28.893Z,99692.24
2019-04-16T09:04:58.275Z,99691.63
2019-04-16T09:07:39.734Z,99683.05
2019-04-16T09:10:18.904Z,99691.83
2019-04-16T09:13:01.950Z,99679.27
2019-04-16T09:15:28.022Z,99673.61
2019-04-16T09:18:04.535Z,99675.83
2019-04-16T09:20:37.769Z,99674.64
2019-04-16T09:23:06.885Z,99681.94
2019-04-16T09:25:38.292Z,99677.98
2019-04-16T09:28:23.777Z,99675.95
2019-04-16T09:30:46.658Z,99679.38
2019-04-16T09:33:37.153Z,99679.00
2019-04-16T09:36:11.096Z,99674.61
2019-04-16T09:38:51.397Z,99676.02
2019-04-16T09:41:25.102Z,99681.56
2019-04-16T09:43:59.707Z,99675.92
2019-04-16T09:46:49.651Z,99666.91
2019-04-16T09:49:04.824Z,99667.80
2019-04-16T09:51:32.516Z,99676.53
2019-04-16T09:54:01.915Z,99668.14
2019-04-16T09:56:31.478Z,99660.59
2019-04-16T09:59:07.144Z,99664.17
2019-04-16T10:01:41.257Z,99663.67
2019-04-16T10:04:15.150Z,99658.81
2019-04-16T10:06:44.602Z,99660.31
2019-04-16T10:09:19.761Z,99653.22
2019-04-16T10:11:45.095Z,99651.64
2019-04-16T10:14:14.486Z,99656.96
2019-04-16T10:16:43.864Z,99653.69
2019-04-16T10:19:13.334Z,99647.94
2019-04-16T10:21:42.742Z,99665.78
2019-04-16T10:24:16.153Z,99661.64
2019-04-16T10:26:47.252Z,99654.66
2019-04-16T10:29:18.258Z,99664.92
2019-04-16T10:31:47.720Z,99650.47
2019-04-16T10:34:17.076Z,99660.95
2019-04-16T10:36:46.475Z,99652.34
2019-04-16T10:39:23.971Z,99653.50
2019-04-16T10:42:00.842Z,99657.77
2019-04-16T10:44:47.829Z,99657.94
2019-04-16T10:47:37.041Z,99655.69
2019-04-16T10:50:20.656Z,99655.57
2019-04-16T10:52:56.155Z,99654.16
2019-04-16T10:55:44.648Z,99651.78
2019-04-16T10:58:15.678Z,99647.11
2019-04-16T11:00:55.234Z,99652.60
2019-04-16T11:03:35.448Z,99647.34
2019-04-16T11:06:12.129Z,99638.06
2019-04-16T11:08:41.545Z,99645.58
2019-04-16T11:11:10.921Z,99637.64
2019-04-16T11:13:42.247Z,99637.13
2019-04-16T11:16:13.330Z,99628.86
2019-04-16T11:18:42.949Z,99630.22
2019-04-16T11:21:12.880Z,99631.75
2019-04-16T11:23:42.278Z,99627.74
2019-04-16T11:26:11.679Z,99622.65
2019-04-16T11:28:41.327Z,99625.67
2019-04-16T11:31:12.768Z,99633.80
2019-04-16T11:33:42.488Z,99624.68
2019-04-16T11:36:19.355Z,99622.66
2019-04-16T11:38:43.086Z,99623.20
2019-04-16T11:41:12.474Z,99613.45
2019-04-16T11:43:41.867Z,99614.72
2019-04-16T11:46:11.482Z,99621.84
2019-04-16T11:48:40.893Z,99622.87
2019-04-16T11:51:10.285Z,99618.90
2019-04-16T11:53:39.757Z,99618.95
2019-04-16T11:56:09.150Z,99624.28
2019-04-16T11:58:47.381Z,99616.58
2019-04-16T12:01:24.816Z,99623.62
2019-04-16T12:03:56.469Z,99612.98
2019-04-16T12:06:43.823Z,99629.50
2019-04-16T12:09:30.305Z,99621.58
2019-04-16T12:12:13.062Z,99623.64
2019-04-16T12:14:44.342Z,99635.02
2019-04-16T12:17:20.908Z,99625.02
2019-04-16T12:19:54.777Z,99624.37
2019-04-16T12:22:28.525Z,99626.36
2019-04-16T12:25:17.795Z,99624.55
2019-04-16T12:27:51.544Z,99637.69
2019-04-16T12:30:25.225Z,99633.17
2019-04-16T12:33:07.837Z,99630.27
2019-04-16T12:35:52.818Z,99635.61
2019-04-16T12:38:32.992Z,99637.78
2019-04-16T12:41:04.445Z,99642.78
2019-04-16T12:43:35.514Z,99649.09
2019-04-16T12:46:12.930Z,99644.34
2019-04-16T12:49:02.019Z,99643.36
2019-04-16T12:51:33.045Z,99635.89
2019-04-16T12:54:13.263Z,99625.31
2019-04-16T12:56:53.717Z,99642.57
2019-04-16T12:59:30.895Z,99635.52
2019-04-16T13:02:18.025Z,99632.25
2019-04-16T13:05:03.840Z,99644.59
2019-04-16T13:07:38.764Z,99636.00
2019-04-16T13:10:12.353Z,99639.73
2019-04-16T13:13:01.565Z,99639.97
2019-04-16T13:15:47.605Z,99648.97
2019-04-16T13:18:18.618Z,99645.95
2019-04-16T13:21:05.079Z,99647.84
2019-04-16T13:23:34.929Z,99645.61
2019-04-16T13:26:13.291Z,99650.00
2019-04-16T13:28:42.968Z,99652.89
2019-04-16T13:31:12.676Z,99659.94
2019-04-16T13:33:43.542Z,99659.38
2019-04-16T13:36:13.182Z,99661.21
2019-04-16T13:38:46.545Z,99663.89
2019-04-16T13:41:15.950Z,99660.98
2019-04-16T13:43:47.262Z,99661.51
2019-04-16T13:46:16.646Z,99649.74
2019-04-16T13:48:47.644Z,99657.39
2019-04-16T13:51:21.138Z,99642.73
2019-04-16T13:54:08.210Z,99659.48
2019-04-16T13:56:42.100Z,99660.73
2019-04-16T13:59:33.796Z,99656.06
2019-04-16T14:02:04.831Z,99661.11
2019-04-16T14:04:37.010Z,99657.03
2019-04-16T14:07:05.293Z,99663.32
2019-04-16T14:09:34.939Z,99668.24
2019-04-16T14:12:04.941Z,99665.60
2019-04-16T14:14:34.309Z,99663.56
2019-04-16T14:17:09.760Z,99660.66
2019-04-16T14:19:38.030Z,99667.11
2019-04-16T14:22:06.103Z,99667.77
2019-04-16T14:24:35.467Z,99664.08
2019-04-16T14:27:05.202Z,99668.30
2019-04-16T14:29:35.876Z,99672.88
2019-04-16T14:32:05.780Z,99661.45
2019-04-16T14:34:48.420Z,99665.44
2019-04-16T14:37:18.557Z,99680.55
2019-04-16T14:39:55.332Z,99676.89
2019-04-16T14:42:25.154Z,99675.36
2019-04-16T14:44:56.159Z,99677.71
2019-04-16T14:47:25.566Z,99678.80
2019-04-16T14:49:54.964Z,99680.63
2019-04-16T14:52:43.927Z,99670.16
2019-04-16T14:55:15.006Z,99678.48
2019-04-16T14:58:04.417Z,99685.02
2019-04-16T15:00:50.494Z,99686.11
2019-04-16T15:03:27.164Z,99680.10
2019-04-16T15:06:13.164Z,99688.52
2019-04-16T15:08:52.673Z,99680.05
2019-04-16T15:11:41.758Z,99679.73
2019-04-16T15:14:18.531Z,99682.00
2019-04-16T15:16:50.962Z,99687.66
2019-04-16T15:19:27.993Z,99687.08
2019-04-16T15:22:01.729Z,99685.70
2019-04-16T15:24:38.760Z,99687.36
2019-04-16T15:27:12.457Z,99686.76
2019-04-16T15:29:43.479Z,99687.44
2019-04-16T15:32:30.615Z,99692.52
2019-04-16T15:35:00.943Z,99690.11
2019-04-16T15:37:35.258Z,99701.52
2019-04-16T15:40:09.055Z,99703.30
2019-04-16T15:42:48.315Z,99701.38
2019-04-16T15:45:37.146Z,99709.98
2019-04-16T15:48:10.831Z,99715.44
2019-04-16T15:50:41.865Z,99713.66
2019-04-16T15:53:15.360Z,99717.11
2019-04-16T15:55:49.267Z,99726.20
2019-04-16T15:58:32.358Z,99726.25
2019-04-16T16:01:03.684Z,99730.44
2019-04-16T16:03:34.715Z,99732.48
2019-04-16T16:06:20.376Z,99731.30
2019-04-16T16:08:50.659Z,99735.84
2019-04-16T16:11:21.671Z,99730.33
2019-04-16T16:13:51.050Z,99739.05
2019-04-16T16:16:20.633Z,99750.03
2019-04-16T16:18:50.334Z,99751.12
2019-04-16T16:21:19.702Z,99748.58
2019-04-16T16:23:49.071Z,99756.58
2019-04-16T16:26:18.740Z,99760.94
2019-04-16T16:28:48.104Z,99764.94
2019-04-16T16:31:17.745Z,99771.30
2019-04-16T16:33:47.476Z,99772.93
2019-04-16T16:36:16.870Z,99779.12
2019-04-16T16:38:48.640Z,99781.58
2019-04-16T16:41:17.334Z,99787.64
2019-04-16T16:43:46.738Z,99796.70
2019-04-16T16:46:32.916Z,99801.94
2019-04-16T16:49:02.576Z,99810.06
2019-04-16T16:51:32.585Z,99805.91
2019-04-16T16:54:13.486Z,99807.67
2019-04-16T16:56:47.205Z,99810.41
2019-04-16T16:59:36.467Z,99811.84
2019-04-16T17:02:19.298Z,99810.27
2019-04-16T17:04:52.971Z,99817.41
2019-04-16T17:07:22.352Z,99815.73
2019-04-16T17:09:51.989Z,99816.38
2019-04-16T17:12:21.465Z,99823.48
2019-04-16T17:14:50.826Z,99832.87
2019-04-16T17:17:20.234Z,99834.93
2019-04-16T17:19:50.789Z,99833.67
2019-04-16T17:22:20.445Z,99834.15
2019-04-16T17:24:49.810Z,99835.38
2019-04-16T17:27:19.213Z,99834.41
2019-04-16T17:29:49.834Z,99840.70
2019-04-16T17:32:19.682Z,99844.30
2019-04-16T17:34:49.061Z,99844.81
2019-04-16T17:37:21.388Z,99852.72
2019-04-16T17:39:51.769Z,99862.16
2019-04-16T17:42:36.998Z,99864.69
2019-04-16T17:45:14.177Z,99864.24
2019-04-16T17:48:01.496Z,99864.87
2019-04-16T17:50:44.604Z,99863.59
2019-04-16T17:53:24.441Z,99877.88
2019-04-16T17:56:13.308Z,99874.52
2019-04-16T17:58:59.389Z,99876.95
2019-04-16T18:01:43.563Z,99881.14
2019-04-16T18:04:21.264Z,99881.45
2019-04-16T18:07:08.437Z,99879.16
2019-04-16T18:09:45.427Z,99885.23
2019-04-16T18:12:32.742Z,99888.28
2019-04-16T18:15:18.960Z,99894.52
2019-04-16T18:17:55.442Z,99891.18
2019-04-16T18:20:29.347Z,99898.34
2019-04-16T18:23:16.628Z,99902.66
2019-04-16T18:26:04.215Z,99910.83
2019-04-16T18:28:38.425Z,99907.60
2019-04-16T18:31:23.401Z,99905.52
2019-04-16T18:33:54.385Z,99909.81
2019-04-16T18:36:37.405Z,99911.13
2019-04-16T18:39:24.294Z,99907.03
2019-04-16T18:42:01.816Z,99911.18
2019-04-16T18:44:51.284Z,99913.62
2019-04-16T18:47:26.614Z,99915.55
2019-04-16T18:50:01.223Z,99909.33
2019-04-16T18:52:30.641Z,99919.20
2019-04-16T18:55:00.035Z,99922.38
2019-04-16T18:57:29.403Z,99915.66
2019-04-16T18:59:58.954Z,99917.51
2019-04-16T19:02:30.173Z,99914.39
2019-04-16T19:04:59.552Z,99918.34
2019-04-16T19:07:28.996Z,99923.88
2019-04-16T19:09:58.742Z,99927.88
2019-04-16T19:12:28.134Z,99928.50
2019-04-16T19:14:57.607Z,99930.73
2019-04-16T19:17:26.972Z,99931.82
2019-04-16T19:19:56.709Z,99950.62
2019-04-16T19:22:26.179Z,99960.69
2019-04-16T19:24:55.612Z,99958.97
2019-04-16T19:27:27.943Z,99970.47
2019-04-16T19:29:56.563Z,99969.00
2019-04-16T19:32:27.782Z,99972.36
2019-04-16T19:35:09.489Z,99971.06
2019-04-16T19:37:29.668Z,99969.62
2019-04-16T19:39:59.247Z,99976.80
2019-04-16T19:42:29.577Z,99974.58
2019-04-16T19:44:59.298Z,99977.93
2019-04-16T19:47:28.678Z,99985.20
2019-04-16T19:49:58.418Z,99987.13
2019-04-16T19:52:27.789Z,99990.95
2019-04-16T19:54:57.339Z,99991.38
2019-04-16T19:57:27.234Z,99997.52
2019-04-16T19:59:56.943Z,99993.53
2019-04-16T20:02:26.315Z,99996.28
2019-04-16T20:04:55.982Z,99995.14
2019-04-16T20:07:25.440Z,99997.15
2019-04-16T20:09:55.121Z,99995.39
2019-04-16T20:12:25.146Z,100000.80
2019-04-16T20:14:55.915Z,100005.08
2019-04-16T20:17:25.289Z,100013.48
2019-04-16T20:19:56.301Z,100010.10
2019-04-16T20:22:26.835Z,100008.57
2019-04-16T20:24:56.207Z,100010.81
2019-04-16T20:27:25.654Z,100014.80
2019-04-16T20:29:55.370Z,100012.41
2019-04-16T20:32:26.058Z,100016.24
2019-04-16T20:34:55.421Z,100018.55
2019-04-16T20:37:24.796Z,100017.62
2019-04-16T20:39:54.247Z,100014.74
2019-04-16T20:42:23.620Z,100014.74
2019-04-16T20:44:53.342Z,100017.39
2019-04-16T20:47:22.719Z,100021.29
2019-04-16T20:49:52.109Z,100020.69
2019-04-16T20:52:21.484Z,100020.91
2019-04-16T20:54:52.508Z,100010.69
2019-04-16T20:57:25.267Z,100004.72
2019-04-16T20:59:53.487Z,100000.69
2019-04-16T21:02:22.864Z,100001.46
2019-04-16T21:04:52.257Z,100001.46
2019-04-16T21:07:21.636Z,100010.50
2019-04-16T21:09:51.020Z,100011.21
2019-04-16T21:12:20.395Z,100007.41
2019-04-16T21:14:50.880Z,100007.70
2019-04-16T21:17:21.173Z,100008.73
2019-04-16T21:19:50.549Z,100015.15
2019-04-16T21:22:20.313Z,100008.66
2019-04-16T21:24:50.022Z,100014.96
2019-04-16T21:27:19.386Z,100010.91
2019-04-16T21:29:48.798Z,100010.46
2019-04-16T21:32:19.797Z,100010.88
2019-04-16T21:34:50.820Z,100013.94
2019-04-16T21:37:30.823Z,100022.50
2019-04-16T21:40:01.977Z,100019.24
2019-04-16T21:42:34.429Z,100020.61
2019-04-16T21:45:02.523Z,100021.31
2019-04-16T21:47:31.891Z,100017.04
2019-04-16T21:50:03.429Z,100019.20
2019-04-16T21:52:32.798Z,100021.44
2019-04-16T21:55:03.992Z,100029.64
2019-04-16T21:57:33.272Z,100030.47
2019-04-16T22:00:03.521Z,100029.16
2019-04-16T22:02:37.652Z,100027.34
2019-04-16T22:05:10.328Z,100031.45
2019-04-16T22:07:39.957Z,100029.19
2019-04-16T22:10:09.850Z,100034.42
2019-04-16T22:12:39.223Z,100032.25
2019-04-16T22:15:09.226Z,100038.88
2019-04-16T22:17:38.598Z,100033.45
2019-04-16T22:20:08.389Z,100035.90
2019-04-16T22:22:37.749Z,100033.31
2019-04-16T22:25:07.929Z,100041.61
2019-04-16T22:27:39.788Z,100042.75
2019-04-16T22:30:09.843Z,100045.91
2019-04-16T22:32:39.192Z,100040.42
2019-04-16T22:35:09.162Z,100045.30
2019-04-16T22:37:38.527Z,100039.19
2019-04-16T22:40:09.849Z,100048.44
2019-04-16T22:42:43.586Z,100051.23
2019-04-16T22:45:23.665Z,100045.80
2019-04-16T22:47:53.092Z,100047.47
2019-04-16T22:50:22.464Z,100045.84
2019-04-16T22:52:51.843Z,100043.50
2019-04-16T22:55:24.395Z,100041.21
2019-04-16T22:57:52.328Z,100043.56
2019-04-16T23:00:23.610Z,100043.52
2019-04-16T23:02:53.019Z,100045.34
2019-04-16T23:05:22.717Z,100045.62
2019-04-16T23:07:52.105Z,100052.25
2019-04-16T23:10:21.901Z,100043.25
2019-04-16T23:12:51.434Z,100044.36
2019-04-16T23:15:20.875Z,100048.69
2019-04-16T23:17:50.251Z,100054.36
2019-04-16T23:20:29.366Z,100059.07
2019-04-16T23:22:50.736Z,100062.02
2019-04-16T23:25:20.385Z,100059.36
2019-04-16T23:27:50.093Z,100060.02
2019-04-16T23:30:19.466Z,100052.41
2019-04-16T23:32:48.856Z,100038.44
2019-04-16T23:35:18.336Z,100045.20
2019-04-16T23:37:47.668Z,100050.48
2019-04-16T23:40:17.046Z,100048.38
2019-04-16T23:43:04.343Z,100041.93
2019-04-16T23:45:35.689Z,100046.75
2019-04-16T23:48:14.699Z,100050.41
2019-04-16T23:50:48.502Z,100048.73
2019-04-16T23:53:19.515Z,100058.81
2019-04-16T23:55:56.258Z,100060.27
2019-04-16T23:58:28.540Z,100066.80
